createdAt,value
2019-02-11T00:00:49.353Z,4.86
2019-02-11T00:01:49.238Z,4.88
2019-02-11T00:02:49.126Z,4.84
2019-02-11T00:03:49.170Z,4.80
2019-02-11T00:04:48.952Z,4.84
2019-02-11T00:05:48.978Z,4.87
2019-02-11T00:06:48.781Z,4.91
2019-02-11T00:07:48.819Z,4.80
2019-02-11T00:08:48.604Z,4.86
2019-02-11T00:09:48.595Z,4.86
2019-02-11T00:10:48.430Z,4.88
2019-02-11T00:11:48.403Z,4.90
2019-02-11T00:12:48.272Z,4.84
2019-02-11T00:13:48.171Z,4.84
2019-02-11T00:14:48.219Z,5.01
2019-02-11T00:15:47.994Z,4.80
2019-02-11T00:16:47.908Z,4.88
2019-02-11T00:17:47.865Z,4.79
2019-02-11T00:18:47.733Z,4.87
2019-02-11T00:19:47.648Z,4.86
2019-02-11T00:20:47.647Z,4.83
2019-02-11T00:21:47.474Z,4.87
2019-02-11T00:22:47.401Z,4.97
2019-02-11T00:23:47.456Z,4.83
2019-02-11T00:24:47.212Z,4.84
2019-02-11T00:25:47.124Z,4.90
2019-02-11T00:26:47.070Z,4.94
2019-02-11T00:27:46.967Z,4.94
2019-02-11T00:28:46.873Z,5.01
2019-02-11T00:29:46.884Z,4.91
2019-02-11T00:30:46.693Z,4.96
2019-02-11T00:31:46.692Z,4.99
2019-02-11T00:32:46.560Z,4.99
2019-02-11T00:33:46.498Z,4.91
2019-02-11T00:34:46.345Z,4.96
2019-02-11T00:35:46.308Z,4.94
2019-02-11T00:36:46.166Z,5.02
2019-02-11T00:37:47.578Z,5.01
2019-02-11T00:38:45.993Z,5.02
2019-02-11T00:39:45.926Z,5.02
2019-02-11T00:40:45.820Z,5.01
2019-02-11T00:41:45.939Z,4.97
2019-02-11T00:42:45.661Z,4.94
2019-02-11T00:43:45.746Z,5.01
2019-02-11T00:44:45.474Z,4.93
2019-02-11T00:45:45.554Z,5.02
2019-02-11T00:46:45.335Z,4.91
2019-02-11T00:47:45.394Z,4.99
2019-02-11T00:48:45.126Z,4.99
2019-02-11T00:49:45.044Z,5.02
2019-02-11T00:50:44.949Z,5.02
2019-02-11T00:51:44.983Z,4.96
2019-02-11T00:52:44.789Z,4.94
2019-02-11T00:53:44.788Z,5.02
2019-02-11T00:54:44.604Z,4.94
2019-02-11T00:55:44.513Z,4.94
2019-02-11T00:56:44.602Z,4.99
2019-02-11T00:57:44.357Z,4.93
2019-02-11T00:58:44.255Z,4.79
2019-02-11T00:59:44.217Z,4.84
2019-02-11T01:00:44.089Z,4.87
2019-02-11T01:01:44.022Z,4.84
2019-02-11T01:02:43.922Z,4.86
2019-02-11T01:03:44.035Z,4.86
2019-02-11T01:04:43.731Z,4.80
2019-02-11T01:05:43.843Z,4.84
2019-02-11T01:06:43.558Z,4.80
2019-02-11T01:07:43.684Z,4.84
2019-02-11T01:08:43.383Z,4.88
2019-02-11T01:09:43.300Z,4.83
2019-02-11T01:10:43.268Z,4.84
2019-02-11T01:11:43.122Z,4.83
2019-02-11T01:12:43.051Z,4.83
2019-02-11T01:13:43.078Z,4.88
2019-02-11T01:14:42.866Z,4.84
2019-02-11T01:15:42.817Z,4.86
2019-02-11T01:16:42.895Z,4.87
2019-02-11T01:17:42.618Z,4.77
2019-02-11T01:18:42.700Z,4.80
2019-02-11T01:19:42.425Z,4.79
2019-02-11T01:20:42.510Z,4.88
2019-02-11T01:21:42.253Z,4.84
2019-02-11T01:22:42.351Z,4.87
2019-02-11T01:23:42.078Z,4.86
2019-02-11T01:24:41.990Z,4.84
2019-02-11T01:25:41.928Z,4.87
2019-02-11T01:26:41.818Z,4.86
2019-02-11T01:27:41.762Z,4.87
2019-02-11T01:28:41.743Z,4.88
2019-02-11T01:29:41.583Z,4.83
2019-02-11T01:30:41.468Z,4.90
2019-02-11T01:31:41.559Z,4.86
2019-02-11T01:32:41.294Z,4.83
2019-02-11T01:33:41.397Z,4.84
2019-02-11T01:34:41.121Z,4.80
2019-02-11T01:35:41.178Z,4.80
2019-02-11T01:36:40.945Z,4.93
2019-02-11T01:37:40.985Z,4.83
2019-02-11T01:38:40.788Z,4.94
2019-02-11T01:39:40.791Z,4.94
2019-02-11T01:40:40.597Z,4.88
2019-02-11T01:41:40.515Z,4.96
2019-02-11T01:42:40.607Z,4.96
2019-02-11T01:43:40.350Z,4.99
2019-02-11T01:44:40.383Z,4.94
2019-02-11T01:45:40.218Z,4.97
2019-02-11T01:46:40.169Z,4.93
2019-02-11T01:47:39.996Z,5.01
2019-02-11T01:48:40.063Z,5.06
2019-02-11T01:49:39.814Z,4.96
2019-02-11T01:50:39.731Z,4.96
2019-02-11T01:51:39.847Z,5.01
2019-02-11T01:52:39.554Z,4.99
2019-02-11T01:53:39.687Z,4.96
2019-02-11T01:54:39.379Z,5.02
2019-02-11T01:55:39.291Z,5.01
2019-02-11T01:56:39.270Z,4.97
2019-02-11T01:57:39.118Z,4.97
2019-02-11T01:58:39.045Z,4.97
2019-02-11T01:59:39.081Z,5.04
2019-02-11T02:00:38.858Z,5.05
2019-02-11T02:01:38.890Z,5.01
2019-02-11T02:02:38.682Z,5.06
2019-02-11T02:03:38.731Z,5.08
2019-02-11T02:04:38.511Z,5.02
2019-02-11T02:05:38.423Z,5.04
2019-02-11T02:06:38.516Z,5.09
2019-02-11T02:07:38.247Z,5.09
2019-02-11T02:08:38.175Z,5.06
2019-02-11T02:09:38.126Z,5.04
2019-02-11T02:10:37.988Z,5.01
2019-02-11T02:11:37.931Z,5.04
2019-02-11T02:12:37.813Z,5.01
2019-02-11T02:13:44.651Z,5.01
2019-02-11T02:14:37.639Z,5.08
2019-02-11T02:15:37.554Z,5.01
2019-02-11T02:16:37.470Z,5.01
2019-02-11T02:17:37.766Z,5.01
2019-02-11T02:18:37.329Z,5.04
2019-02-11T02:19:37.206Z,5.02
2019-02-11T02:20:37.117Z,5.01
2019-02-11T02:21:37.183Z,5.02
2019-02-11T02:22:36.944Z,5.09
2019-02-11T02:23:36.870Z,5.01
2019-02-11T02:24:36.789Z,5.08
2019-02-11T02:25:36.683Z,5.12
2019-02-11T02:26:36.597Z,5.06
2019-02-11T02:27:36.607Z,5.09
2019-02-11T02:28:36.437Z,5.02
2019-02-11T02:29:36.336Z,5.08
2019-02-11T02:30:36.441Z,5.06
2019-02-11T02:31:36.167Z,5.02
2019-02-11T02:32:36.229Z,5.04
2019-02-11T02:33:36.002Z,4.99
2019-02-11T02:34:36.035Z,5.06
2019-02-11T02:35:35.813Z,5.11
2019-02-11T02:36:35.729Z,5.08
2019-02-11T02:37:35.850Z,5.02
2019-02-11T02:38:35.569Z,4.99
2019-02-11T02:39:35.465Z,5.04
2019-02-11T02:40:35.462Z,5.01
2019-02-11T02:41:35.301Z,5.04
2019-02-11T02:42:35.269Z,5.01
2019-02-11T02:43:35.130Z,5.02
2019-02-11T02:44:35.078Z,5.06
2019-02-11T02:45:34.944Z,5.01
2019-02-11T02:46:34.856Z,5.04
2019-02-11T02:47:34.894Z,5.05
2019-02-11T02:48:34.706Z,5.12
2019-02-11T02:49:34.597Z,5.09
2019-02-11T02:50:34.708Z,5.12
2019-02-11T02:51:34.426Z,5.22
2019-02-11T02:52:34.517Z,5.12
2019-02-11T02:53:34.270Z,5.12
2019-02-11T02:54:34.325Z,5.12
2019-02-11T02:55:34.072Z,5.11
2019-02-11T02:56:33.988Z,5.15
2019-02-11T02:57:33.943Z,5.14
2019-02-11T02:58:33.828Z,5.15
2019-02-11T02:59:33.728Z,5.12
2019-02-11T03:00:33.959Z,5.11
2019-02-11T03:01:33.557Z,5.15
2019-02-11T03:02:33.468Z,5.14
2019-02-11T03:03:33.598Z,5.17
2019-02-11T03:04:33.292Z,5.11
2019-02-11T03:05:33.205Z,5.20
2019-02-11T03:06:33.226Z,5.11
2019-02-11T03:07:33.032Z,5.08
2019-02-11T03:08:33.016Z,5.15
2019-02-11T03:09:32.876Z,5.17
2019-02-11T03:10:32.792Z,5.14
2019-02-11T03:11:32.685Z,5.11
2019-02-11T03:12:32.596Z,5.23
2019-02-11T03:13:32.609Z,5.20
2019-02-11T03:14:32.437Z,5.20
2019-02-11T03:15:32.337Z,5.20
2019-02-11T03:16:32.422Z,5.22
2019-02-11T03:17:32.167Z,5.29
2019-02-11T03:18:32.075Z,5.19
2019-02-11T03:19:32.066Z,5.22
2019-02-11T03:20:31.901Z,5.23
2019-02-11T03:21:31.816Z,5.23
2019-02-11T03:22:31.848Z,5.32
2019-02-11T03:23:31.646Z,5.29
2019-02-11T03:24:31.569Z,5.30
2019-02-11T03:25:31.662Z,5.32
2019-02-11T03:26:31.387Z,5.32
2019-02-11T03:27:31.295Z,5.23
2019-02-11T03:28:31.208Z,5.24
2019-02-11T03:29:31.315Z,5.23
2019-02-11T03:30:31.035Z,5.27
2019-02-11T03:31:30.949Z,5.32
2019-02-11T03:32:30.897Z,5.33
2019-02-11T03:33:30.897Z,5.33
2019-02-11T03:34:30.703Z,5.27
2019-02-11T03:35:30.599Z,5.22
2019-02-11T03:36:30.713Z,5.32
2019-02-11T03:37:30.428Z,5.26
2019-02-11T03:38:30.342Z,5.20
2019-02-11T03:39:30.356Z,5.23
2019-02-11T03:40:30.176Z,5.22
2019-02-11T03:41:30.079Z,5.33
2019-02-11T03:42:30.136Z,5.23
2019-02-11T03:43:29.909Z,5.23
2019-02-11T03:44:29.978Z,5.29
2019-02-11T03:45:29.735Z,5.26
2019-02-11T03:46:29.843Z,5.23
2019-02-11T03:47:29.559Z,5.33
2019-02-11T03:48:29.563Z,5.33
2019-02-11T03:49:29.412Z,5.30
2019-02-11T03:50:29.375Z,5.35
2019-02-11T03:51:29.216Z,5.29
2019-02-11T03:52:29.124Z,5.32
2019-02-11T03:53:29.189Z,5.32
2019-02-11T03:54:28.965Z,5.32
2019-02-11T03:55:28.872Z,5.32
2019-02-11T03:56:28.798Z,5.33
2019-02-11T03:57:28.691Z,5.33
2019-02-11T03:58:28.616Z,5.35
2019-02-11T03:59:28.644Z,5.42
2019-02-11T04:00:28.432Z,5.32
2019-02-11T04:01:28.344Z,5.29
2019-02-11T04:02:28.427Z,5.35
2019-02-11T04:03:28.170Z,5.38
2019-02-11T04:04:28.275Z,5.40
2019-02-11T04:05:27.997Z,5.35
2019-02-11T04:06:27.911Z,5.37
2019-02-11T04:07:27.834Z,5.40
2019-02-11T04:08:27.737Z,5.37
2019-02-11T04:09:27.665Z,5.44
2019-02-11T04:10:27.659Z,5.44
2019-02-11T04:11:27.478Z,5.41
2019-02-11T04:12:27.399Z,5.41
2019-02-11T04:13:27.482Z,5.42
2019-02-11T04:14:27.233Z,5.47
2019-02-11T04:15:27.129Z,5.44
2019-02-11T04:16:27.088Z,5.47
2019-02-11T04:17:26.973Z,5.47
2019-02-11T04:18:26.872Z,5.47
2019-02-11T04:19:26.932Z,5.60
2019-02-11T04:20:26.696Z,5.56
2019-02-11T04:21:26.627Z,5.55
2019-02-11T04:22:26.715Z,5.48
2019-02-11T04:23:26.437Z,5.49
2019-02-11T04:24:26.555Z,5.52
2019-02-11T04:25:26.268Z,5.58
2019-02-11T04:26:26.332Z,5.69
2019-02-11T04:27:26.088Z,5.63
2019-02-11T04:28:26.002Z,5.67
2019-02-11T04:29:25.985Z,5.67
2019-02-11T04:30:25.835Z,5.62
2019-02-11T04:31:25.745Z,5.62
2019-02-11T04:32:25.760Z,5.59
2019-02-11T04:33:25.569Z,5.62
2019-02-11T04:34:25.496Z,5.62
2019-02-11T04:35:25.572Z,5.51
2019-02-11T04:36:25.308Z,5.62
2019-02-11T04:37:25.226Z,5.65
2019-02-11T04:38:25.182Z,5.63
2019-02-11T04:39:25.094Z,5.66
2019-02-11T04:40:25.023Z,5.65
2019-02-11T04:41:24.877Z,5.62
2019-02-11T04:42:24.789Z,5.70
2019-02-11T04:43:24.710Z,5.58
2019-02-11T04:44:33.632Z,5.62
2019-02-11T04:45:24.547Z,5.56
2019-02-11T04:46:24.449Z,5.67
2019-02-11T04:47:24.365Z,5.56
2019-02-11T04:48:24.271Z,5.66
2019-02-11T04:49:24.189Z,5.62
2019-02-11T04:50:24.111Z,5.56
2019-02-11T04:51:24.039Z,5.73
2019-02-11T04:52:23.926Z,5.62
2019-02-11T04:53:24.052Z,5.58
2019-02-11T04:54:23.813Z,5.51
2019-02-11T04:55:23.895Z,5.69
2019-02-11T04:56:23.578Z,5.69
2019-02-11T04:57:23.490Z,5.60
2019-02-11T04:58:23.473Z,5.73
2019-02-11T04:59:23.317Z,5.62
2019-02-11T05:00:23.246Z,5.51
2019-02-11T05:01:23.287Z,5.73
2019-02-11T05:02:23.055Z,5.66
2019-02-11T05:03:22.974Z,5.62
2019-02-11T05:04:23.104Z,5.67
2019-02-11T05:05:22.816Z,5.63
2019-02-11T05:06:22.713Z,5.70
2019-02-11T05:07:22.730Z,5.74
2019-02-11T05:08:22.539Z,5.58
2019-02-11T05:09:22.466Z,5.69
2019-02-11T05:10:22.380Z,5.59
2019-02-11T05:11:22.327Z,5.62
2019-02-11T05:12:22.194Z,5.58
2019-02-11T05:13:22.139Z,5.60
2019-02-11T05:14:22.019Z,5.69
2019-02-11T05:15:21.978Z,5.58
2019-02-11T05:16:21.854Z,5.67
2019-02-11T05:17:21.960Z,5.62
2019-02-11T05:18:21.674Z,5.58
2019-02-11T05:19:21.584Z,5.66
2019-02-11T05:20:21.601Z,5.60
2019-02-11T05:21:21.418Z,5.62
2019-02-11T05:22:21.326Z,5.63
2019-02-11T05:23:21.305Z,5.63
2019-02-11T05:24:21.173Z,5.51
2019-02-11T05:25:21.081Z,5.55
2019-02-11T05:26:27.676Z,5.48
2019-02-11T05:27:20.896Z,5.62
2019-02-11T05:28:20.813Z,5.58
2019-02-11T05:29:20.836Z,5.49
2019-02-11T05:30:20.632Z,5.52
2019-02-11T05:31:20.676Z,5.59
2019-02-11T05:32:20.463Z,5.60
2019-02-11T05:33:20.616Z,5.58
2019-02-11T05:34:20.360Z,5.58
2019-02-11T05:35:20.197Z,5.58
2019-02-11T05:36:20.135Z,5.52
2019-02-11T05:37:20.069Z,5.56
2019-02-11T05:38:19.945Z,5.51
2019-02-11T05:39:19.857Z,5.48
2019-02-11T05:40:19.782Z,5.58
2019-02-11T05:41:19.693Z,5.65
2019-02-11T05:42:19.597Z,5.52
2019-02-11T05:43:19.598Z,5.48
2019-02-11T05:44:19.420Z,5.49
2019-02-11T05:45:19.342Z,5.58
2019-02-11T05:46:19.345Z,5.56
2019-02-11T05:47:19.161Z,5.48
2019-02-11T05:48:19.079Z,5.47
2019-02-11T05:49:25.658Z,5.42
2019-02-11T05:50:18.904Z,5.41
2019-02-11T05:51:18.937Z,5.44
2019-02-11T05:52:18.729Z,5.40
2019-02-11T05:53:18.648Z,5.41
2019-02-11T05:54:18.599Z,5.48
2019-02-11T05:55:18.475Z,5.49
2019-02-11T05:56:18.398Z,5.59
2019-02-11T05:57:18.306Z,5.47
2019-02-11T05:58:18.242Z,5.51
2019-02-11T05:59:18.132Z,5.56
2019-02-11T06:00:18.039Z,5.48
2019-02-11T06:01:17.974Z,5.49
2019-02-11T06:02:17.866Z,5.47
2019-02-11T06:03:17.784Z,5.47
2019-02-11T06:04:17.693Z,5.51
2019-02-11T06:05:17.613Z,5.49
2019-02-11T06:06:17.532Z,5.47
2019-02-11T06:07:17.439Z,5.45
2019-02-11T06:08:17.345Z,5.48
2019-02-11T06:09:17.258Z,5.48
2019-02-11T06:10:17.200Z,5.48
2019-02-11T06:11:17.098Z,5.42
2019-02-11T06:12:17.025Z,5.45
2019-02-11T06:13:16.930Z,5.44
2019-02-11T06:14:16.837Z,5.44
2019-02-11T06:15:16.743Z,5.48
2019-02-11T06:16:16.666Z,5.44
2019-02-11T06:17:16.572Z,5.48
2019-02-11T06:18:16.486Z,5.48
2019-02-11T06:19:16.399Z,5.45
2019-02-11T06:20:16.308Z,5.48
2019-02-11T06:21:16.260Z,5.44
2019-02-11T06:22:16.133Z,5.44
2019-02-11T06:23:16.062Z,5.41
2019-02-11T06:24:15.965Z,5.49
2019-02-11T06:25:15.874Z,5.38
2019-02-11T06:26:15.821Z,5.47
2019-02-11T06:27:15.701Z,5.47
2019-02-11T06:28:15.613Z,5.47
2019-02-11T06:29:15.539Z,5.45
2019-02-11T06:30:15.443Z,5.44
2019-02-11T06:31:15.354Z,5.44
2019-02-11T06:32:15.296Z,5.44
2019-02-11T06:33:15.184Z,5.38
2019-02-11T06:34:15.095Z,5.41
2019-02-11T06:35:15.014Z,5.33
2019-02-11T06:36:14.921Z,5.33
2019-02-11T06:37:14.853Z,5.47
2019-02-11T06:38:14.758Z,5.38
2019-02-11T06:39:14.663Z,5.38
2019-02-11T06:40:14.575Z,5.44
2019-02-11T06:41:14.493Z,5.37
2019-02-11T06:42:14.415Z,5.40
2019-02-11T06:43:14.316Z,5.41
2019-02-11T06:44:14.243Z,5.33
2019-02-11T06:45:14.143Z,5.33
2019-02-11T06:46:14.061Z,5.35
2019-02-11T06:47:13.986Z,5.33
2019-02-11T06:48:13.889Z,5.30
2019-02-11T06:49:13.809Z,5.33
2019-02-11T06:50:13.715Z,5.32
2019-02-11T06:51:13.622Z,5.35
2019-02-11T06:52:13.558Z,5.30
2019-02-11T06:53:13.451Z,5.33
2019-02-11T06:54:13.369Z,5.33
2019-02-11T06:55:13.275Z,5.35
2019-02-11T06:56:13.195Z,5.41
2019-02-11T06:57:13.117Z,5.35
2019-02-11T06:58:13.051Z,5.41
2019-02-11T06:59:12.927Z,5.47
2019-02-11T07:00:12.893Z,5.45
2019-02-11T07:01:12.759Z,5.48
2019-02-11T07:02:12.684Z,5.41
2019-02-11T07:03:12.585Z,5.48
2019-02-11T07:04:12.505Z,5.45
2019-02-11T07:05:12.410Z,5.45
2019-02-11T07:06:12.330Z,5.48
2019-02-11T07:07:12.249Z,5.51
2019-02-11T07:08:12.225Z,5.42
2019-02-11T07:09:12.086Z,5.52
2019-02-11T07:10:11.982Z,5.41
2019-02-11T07:11:11.897Z,5.48
2019-02-11T07:12:11.825Z,5.55
2019-02-11T07:13:11.715Z,5.59
2019-02-11T07:14:11.632Z,5.48
2019-02-11T07:15:11.551Z,5.52
2019-02-11T07:16:11.457Z,5.55
2019-02-11T07:17:11.401Z,5.52
2019-02-11T07:18:11.291Z,5.55
2019-02-11T07:19:11.197Z,5.52
2019-02-11T07:20:11.113Z,5.56
2019-02-11T07:21:11.029Z,5.56
2019-02-11T07:22:10.952Z,5.59
2019-02-11T07:23:10.859Z,5.58
2019-02-11T07:24:10.770Z,5.60
2019-02-11T07:25:10.680Z,5.62
2019-02-11T07:26:10.594Z,5.62
2019-02-11T07:27:10.522Z,5.59
2019-02-11T07:28:10.420Z,5.67
2019-02-11T07:29:10.331Z,5.63
2019-02-11T07:30:10.253Z,5.59
2019-02-11T07:31:11.189Z,5.56
2019-02-11T07:32:10.193Z,5.67
2019-02-11T07:33:09.989Z,5.59
2019-02-11T07:34:09.968Z,5.69
2019-02-11T07:35:09.826Z,5.62
2019-02-11T07:36:09.775Z,5.66
2019-02-11T07:37:09.663Z,5.67
2019-02-11T07:38:09.581Z,5.62
2019-02-11T07:39:09.468Z,5.73
2019-02-11T07:40:09.389Z,5.75
2019-02-11T07:41:09.297Z,5.81
2019-02-11T07:42:09.437Z,5.93
2019-02-11T07:43:09.122Z,5.84
2019-02-11T07:44:09.222Z,5.92
2019-02-11T07:45:08.973Z,5.80
2019-02-11T07:46:08.881Z,5.93
2019-02-11T07:47:08.853Z,5.88
2019-02-11T07:48:08.715Z,5.85
2019-02-11T07:49:08.617Z,5.75
2019-02-11T07:50:08.642Z,5.80
2019-02-11T07:51:08.434Z,5.78
2019-02-11T07:52:08.480Z,5.63
2019-02-11T07:53:08.267Z,5.66
2019-02-11T07:54:08.252Z,5.60
2019-02-11T07:55:08.089Z,5.66
2019-02-11T07:56:08.004Z,5.59
2019-02-11T07:57:08.098Z,5.56
2019-02-11T07:58:07.851Z,5.59
2019-02-11T07:59:07.742Z,5.55
2019-02-11T08:00:07.656Z,5.60
2019-02-11T08:01:07.578Z,5.65
2019-02-11T08:02:07.499Z,5.81
2019-02-11T08:03:07.410Z,5.95
2019-02-11T08:04:07.341Z,6.06
2019-02-11T08:05:07.305Z,6.13
2019-02-11T08:06:08.968Z,6.19
2019-02-11T08:07:07.053Z,6.13
2019-02-11T08:08:07.148Z,6.16
2019-02-11T08:09:06.885Z,6.19
2019-02-11T08:10:06.794Z,6.13
2019-02-11T08:11:06.727Z,6.03
2019-02-11T08:12:06.621Z,6.11
2019-02-11T08:13:06.567Z,6.14
2019-02-11T08:14:06.454Z,6.14
2019-02-11T08:15:06.560Z,6.02
2019-02-11T08:16:06.280Z,6.01
2019-02-11T08:17:06.358Z,6.08
2019-02-11T08:18:06.123Z,6.03
2019-02-11T08:19:06.171Z,6.06
2019-02-11T08:20:05.942Z,6.08
2019-02-11T08:21:06.051Z,6.03
2019-02-11T08:22:05.777Z,6.20
2019-02-11T08:23:11.966Z,6.16
2019-02-11T08:24:05.593Z,6.24
2019-02-11T08:25:05.569Z,6.27
2019-02-11T08:26:06.253Z,6.14
2019-02-11T08:27:05.400Z,6.16
2019-02-11T08:28:05.264Z,6.19
2019-02-11T08:29:05.213Z,6.03
2019-02-11T08:30:05.101Z,6.02
2019-02-11T08:31:05.023Z,6.06
2019-02-11T08:32:04.907Z,6.03
2019-02-11T08:33:04.856Z,6.10
2019-02-11T08:34:04.736Z,6.13
2019-02-11T08:35:04.840Z,6.14
2019-02-11T08:36:04.565Z,6.20
2019-02-11T08:37:04.647Z,6.13
2019-02-11T08:38:04.408Z,6.17
2019-02-11T08:39:04.457Z,6.13
2019-02-11T08:40:04.223Z,6.16
2019-02-11T08:41:04.266Z,6.19
2019-02-11T08:42:04.052Z,6.25
2019-02-11T08:43:04.107Z,6.20
2019-02-11T08:44:03.878Z,6.24
2019-02-11T08:45:03.880Z,6.17
2019-02-11T08:46:03.707Z,6.16
2019-02-11T08:47:03.620Z,6.14
2019-02-11T08:48:03.728Z,6.14
2019-02-11T08:49:03.453Z,6.03
2019-02-11T08:50:03.364Z,6.06
2019-02-11T08:51:03.307Z,6.05
2019-02-11T08:52:03.196Z,6.14
2019-02-11T08:53:03.152Z,6.17
2019-02-11T08:54:03.029Z,6.28
2019-02-11T08:55:03.137Z,6.16
2019-02-11T08:56:03.501Z,6.30
2019-02-11T08:57:02.765Z,6.33
2019-02-11T08:58:02.769Z,6.30
2019-02-11T08:59:02.592Z,6.38
2019-02-11T09:00:02.516Z,6.39
2019-02-11T09:01:02.552Z,6.50
2019-02-11T09:02:02.344Z,6.54
2019-02-11T09:03:02.269Z,6.36
2019-02-11T09:04:02.369Z,6.46
2019-02-11T09:05:02.082Z,6.45
2019-02-11T09:06:01.997Z,6.32
2019-02-11T09:07:01.920Z,6.43
2019-02-11T09:08:01.842Z,6.45
2019-02-11T09:09:01.741Z,6.40
2019-02-11T09:10:01.663Z,6.55
2019-02-11T09:11:01.570Z,6.58
2019-02-11T09:12:01.488Z,6.53
2019-02-11T09:13:01.528Z,6.63
2019-02-11T09:14:01.321Z,6.54
2019-02-11T09:15:01.240Z,6.58
2019-02-11T09:16:01.144Z,6.55
2019-02-11T09:17:01.066Z,6.54
2019-02-11T09:18:00.992Z,6.63
2019-02-11T09:19:00.903Z,6.65
2019-02-11T09:20:00.805Z,6.57
2019-02-11T09:21:00.728Z,6.65
2019-02-11T09:22:07.362Z,6.58
2019-02-11T09:23:00.556Z,6.71
2019-02-11T09:24:00.478Z,6.82
2019-02-11T09:25:00.384Z,6.89
2019-02-11T09:26:00.293Z,6.89
2019-02-11T09:27:00.214Z,6.81
2019-02-11T09:28:00.129Z,6.82
2019-02-11T09:29:00.060Z,6.64
2019-02-11T09:29:59.955Z,6.71
2019-02-11T09:30:59.876Z,6.76
2019-02-11T09:31:59.827Z,6.82
2019-02-11T09:32:59.708Z,6.86
2019-02-11T09:33:59.629Z,6.96
2019-02-11T09:34:59.536Z,6.94
2019-02-11T09:35:59.453Z,6.90
2019-02-11T09:36:59.368Z,7.07
2019-02-11T09:37:59.280Z,7.14
2019-02-11T09:38:59.356Z,7.30
2019-02-11T09:39:59.105Z,7.27
2019-02-11T09:40:59.133Z,7.26
2019-02-11T09:41:58.940Z,7.30
2019-02-11T09:42:58.942Z,7.47
2019-02-11T09:43:58.809Z,7.63
2019-02-11T09:44:58.691Z,7.69
2019-02-11T09:46:03.777Z,7.66
2019-02-11T09:46:58.518Z,7.62
2019-02-11T09:47:58.438Z,7.50
2019-02-11T09:48:58.361Z,7.60
2019-02-11T09:49:58.265Z,7.62
2019-02-11T09:50:58.185Z,7.69
2019-02-11T09:51:58.113Z,7.73
2019-02-11T09:52:58.014Z,7.66
2019-02-11T09:53:57.951Z,7.63
2019-02-11T09:54:57.845Z,7.60
2019-02-11T09:55:57.761Z,7.63
2019-02-11T09:56:57.684Z,7.58
2019-02-11T09:57:57.591Z,7.60
2019-02-11T09:58:57.530Z,7.44
2019-02-11T09:59:57.425Z,7.45
2019-02-11T10:00:57.347Z,7.42
2019-02-11T10:01:57.273Z,7.36
2019-02-11T10:02:57.176Z,7.44
2019-02-11T10:03:57.104Z,7.51
2019-02-11T10:04:57.023Z,7.47
2019-02-11T10:05:56.921Z,7.39
2019-02-11T10:06:56.849Z,7.37
2019-02-11T10:07:56.754Z,7.36
2019-02-11T10:08:56.693Z,7.41
2019-02-11T10:09:56.633Z,7.47
2019-02-11T10:10:56.506Z,7.42
2019-02-11T10:11:56.416Z,7.55
2019-02-11T10:12:56.331Z,7.73
2019-02-11T10:13:56.268Z,7.91
2019-02-11T10:14:56.164Z,7.95
2019-02-11T10:15:56.079Z,7.92
2019-02-11T10:16:56.093Z,7.95
2019-02-11T10:17:55.912Z,8.06
2019-02-11T10:18:55.838Z,8.00
2019-02-11T10:19:55.908Z,8.06
2019-02-11T10:20:55.657Z,7.96
2019-02-11T10:21:55.575Z,8.04
2019-02-11T10:23:02.196Z,7.94
2019-02-11T10:23:55.504Z,7.91
2019-02-11T10:24:55.338Z,7.94
2019-02-11T10:25:55.354Z,8.02
2019-02-11T10:26:55.154Z,8.00
2019-02-11T10:27:55.069Z,8.07
2019-02-11T10:28:57.035Z,8.13
2019-02-11T10:29:54.905Z,8.20
2019-02-11T10:30:54.821Z,8.14
2019-02-11T10:31:54.740Z,8.13
2019-02-11T10:32:54.653Z,8.09
2019-02-11T10:33:54.602Z,8.12
2019-02-11T10:34:54.493Z,8.14
2019-02-11T10:35:54.400Z,8.10
2019-02-11T10:36:54.319Z,8.22
2019-02-11T10:37:54.240Z,8.21
2019-02-11T10:38:54.148Z,8.17
2019-02-11T10:39:54.092Z,8.27
2019-02-11T10:40:53.985Z,8.31
2019-02-11T10:41:53.905Z,8.28
2019-02-11T10:42:53.827Z,8.46
2019-02-11T10:43:53.816Z,8.52
2019-02-11T10:44:53.696Z,8.50
2019-02-11T10:45:53.625Z,8.63
2019-02-11T10:46:53.481Z,8.75
2019-02-11T10:47:53.397Z,8.80
2019-02-11T10:48:53.438Z,8.79
2019-02-11T10:49:53.250Z,8.68
2019-02-11T10:50:53.147Z,8.64
2019-02-11T10:51:53.071Z,8.45
2019-02-11T10:52:52.982Z,8.39
2019-02-11T10:53:52.907Z,8.29
2019-02-11T10:54:52.897Z,8.34
2019-02-11T10:55:52.733Z,8.24
2019-02-11T10:56:52.650Z,8.20
2019-02-11T10:57:52.578Z,8.21
2019-02-11T10:58:52.481Z,8.24
2019-02-11T10:59:52.412Z,8.17
2019-02-11T11:00:52.323Z,8.18
2019-02-11T11:01:52.232Z,8.12
2019-02-11T11:02:52.147Z,8.21
2019-02-11T11:03:53.071Z,8.24
2019-02-11T11:04:51.996Z,8.20
2019-02-11T11:05:51.963Z,8.28
2019-02-11T11:06:51.813Z,8.34
2019-02-11T11:07:51.728Z,8.32
2019-02-11T11:08:51.726Z,8.42
2019-02-11T11:09:51.581Z,8.40
2019-02-11T11:10:51.478Z,8.43
2019-02-11T11:11:51.400Z,8.45
2019-02-11T11:12:51.313Z,8.46
2019-02-11T11:13:51.228Z,8.43
2019-02-11T11:14:51.163Z,8.45
2019-02-11T11:15:51.058Z,8.45
2019-02-11T11:16:50.973Z,8.43
2019-02-11T11:17:50.896Z,8.37
2019-02-11T11:18:50.807Z,8.31
2019-02-11T11:19:50.739Z,8.34
2019-02-11T11:20:50.643Z,8.43
2019-02-11T11:21:50.556Z,8.43
2019-02-11T11:22:50.470Z,8.40
2019-02-11T11:23:50.397Z,8.37
2019-02-11T11:24:50.317Z,8.45
2019-02-11T11:25:50.222Z,8.39
2019-02-11T11:26:50.145Z,8.39
2019-02-11T11:27:50.054Z,8.43
2019-02-11T11:28:49.974Z,8.37
2019-02-11T11:29:49.904Z,8.36
2019-02-11T11:30:49.810Z,8.37
2019-02-11T11:31:49.715Z,8.39
2019-02-11T11:32:49.640Z,8.42
2019-02-11T11:33:49.550Z,8.45
2019-02-11T11:34:49.558Z,8.40
2019-02-11T11:35:49.382Z,8.37
2019-02-11T11:36:49.355Z,8.43
2019-02-11T11:37:49.223Z,8.43
2019-02-11T11:38:49.134Z,8.42
2019-02-11T11:39:49.060Z,8.52
2019-02-11T11:40:48.967Z,8.40
2019-02-11T11:41:48.887Z,8.46
2019-02-11T11:42:48.799Z,8.45
2019-02-11T11:43:48.713Z,8.42
2019-02-11T11:44:48.646Z,8.43
2019-02-11T11:45:48.544Z,8.32
2019-02-11T11:46:48.461Z,8.18
2019-02-11T11:47:48.377Z,8.18
2019-02-11T11:48:48.305Z,8.07
2019-02-11T11:49:48.254Z,8.04
2019-02-11T11:50:48.121Z,8.02
2019-02-11T11:51:48.037Z,7.85
2019-02-11T11:52:47.984Z,7.69
2019-02-11T11:53:47.880Z,7.71
2019-02-11T11:54:47.780Z,7.71
2019-02-11T11:55:47.735Z,7.62
2019-02-11T11:56:47.614Z,7.66
2019-02-11T11:57:47.580Z,7.48
2019-02-11T11:58:47.457Z,7.51
2019-02-11T11:59:47.362Z,7.58
2019-02-11T12:00:47.303Z,7.54
2019-02-11T12:01:47.207Z,7.57
2019-02-11T12:03:00.450Z,7.50
2019-02-11T12:03:47.020Z,7.55
2019-02-11T12:04:46.942Z,7.55
2019-02-11T12:05:46.867Z,7.58
2019-02-11T12:06:46.775Z,7.45
2019-02-11T12:07:46.696Z,7.42
2019-02-11T12:08:46.599Z,7.37
2019-02-11T12:09:46.519Z,7.24
2019-02-11T12:10:46.450Z,7.14
2019-02-11T12:11:46.350Z,7.08
2019-02-11T12:12:46.258Z,7.05
2019-02-11T12:13:46.172Z,6.87
2019-02-11T12:14:46.101Z,6.93
2019-02-11T12:15:46.026Z,7.00
2019-02-11T12:16:56.800Z,6.94
2019-02-11T12:17:46.109Z,6.91
2019-02-11T12:18:45.750Z,6.81
2019-02-11T12:19:45.851Z,6.83
2019-02-11T12:20:45.588Z,6.82
2019-02-11T12:21:45.661Z,6.83
2019-02-11T12:22:45.405Z,6.83
2019-02-11T12:23:45.323Z,6.86
2019-02-11T12:24:45.238Z,6.78
2019-02-11T12:25:45.158Z,6.81
2019-02-11T12:26:45.061Z,6.91
2019-02-11T12:27:45.086Z,6.96
2019-02-11T12:28:44.888Z,6.94
2019-02-11T12:29:44.803Z,6.94
2019-02-11T12:30:44.940Z,6.97
2019-02-11T12:31:44.636Z,7.00
2019-02-11T12:32:44.547Z,7.01
2019-02-11T12:33:44.514Z,7.08
2019-02-11T12:34:44.385Z,7.11
2019-02-11T12:35:44.304Z,7.11
2019-02-11T12:36:44.212Z,7.04
2019-02-11T12:37:44.127Z,7.12
2019-02-11T12:38:44.033Z,7.15
2019-02-11T12:39:44.143Z,7.16
2019-02-11T12:40:43.890Z,7.30
2019-02-11T12:41:43.793Z,7.26
2019-02-11T12:42:43.854Z,7.24
2019-02-11T12:43:43.756Z,7.30
2019-02-11T12:44:43.529Z,7.27
2019-02-11T12:45:43.459Z,7.23
2019-02-11T12:46:43.356Z,7.12
2019-02-11T12:47:43.280Z,7.19
2019-02-11T12:48:43.189Z,7.23
2019-02-11T12:49:43.185Z,7.30
2019-02-11T12:50:43.029Z,7.33
2019-02-11T12:51:42.994Z,7.37
2019-02-11T12:52:42.883Z,7.33
2019-02-11T12:53:42.770Z,7.39
2019-02-11T12:54:42.678Z,7.51
2019-02-11T12:55:42.609Z,7.45
2019-02-11T12:56:42.505Z,7.52
2019-02-11T12:57:42.423Z,7.70
2019-02-11T12:58:42.339Z,7.89
2019-02-11T12:59:42.254Z,7.99
2019-02-11T13:00:42.167Z,8.04
2019-02-11T13:01:42.103Z,8.07
2019-02-11T13:02:41.994Z,8.14
2019-02-11T13:03:41.905Z,8.10
2019-02-11T13:04:41.830Z,8.10
2019-02-11T13:05:45.789Z,8.20
2019-02-11T13:06:41.677Z,8.18
2019-02-11T13:07:41.576Z,8.13
2019-02-11T13:08:41.492Z,8.13
2019-02-11T13:09:41.408Z,8.14
2019-02-11T13:10:41.326Z,8.22
2019-02-11T13:11:41.252Z,8.43
2019-02-11T13:12:41.153Z,8.50
2019-02-11T13:13:41.077Z,8.40
2019-02-11T13:14:40.993Z,8.27
2019-02-11T13:15:59.903Z,8.21
2019-02-11T13:16:40.829Z,8.21
2019-02-11T13:17:40.914Z,8.20